Airfield :
LOGIN :

Register | Disclaimer

   EN    FR    IT 

 










Legend :    VFR   Marginal VFR   IFR   Intensive IFR   Very Intensive IFR
Visi :
Ceiling :
>= 8 km
>= 3000ft
5 to 8 km
1000 to 3000 ft
1500m to 5 km
500 to 1000 ft
800 to 1500m
200 to 500 ft
< 800m
< 200 ft
Symbols :   Thunderstorms  Fog  Heavy snow  Heavy precipitations  Wind > 20 kt
SIGMETs :     Misc.  Thunderstorms  Icing  Turbulence  Mountain Waves  Volcanic Ashes






- Airport Elevation : 464 ft
- IATA code : EVX


LFOE - Evreux

CURRENT METAR :
  • 170530Z AUTO 00000KT 5000 BR OVC036 04/04 Q1009

EXPIRED METARs :
  • 170500Z AUTO 08002KT 7000 OVC035 04/04 Q1009
  • 170430Z AUTO 10003KT 5000 BR OVC036 04/04 Q1009
  • 170400Z AUTO 10002KT 4100 BR OVC036 04/04 Q1009
  • 170330Z AUTO 05002KT 3700 BR OVC037 04/04 Q1009
  • 170300Z AUTO 00000KT 3200 1400 R22/1700N BR OVC038 04/04 Q1009
  • 170230Z AUTO 10002KT 5000 BR OVC038 04/04 Q1009

TAF TAF LFOE
Valid from the 16 at 15:00 until the 17 at 15:00 UTC


161400Z 1615/1715 13006KT 9999 BKN015
BECMG 1621/1623 3000 BR BKN008
PROB40
TEMPO 1700/1709 0800 BCFG BKN003
BECMG 1709/1711 9999 NSW BKN020



MET'MAP, your aeronautical weather chart ! - Copyright ORBIFLY December 2007 - Disclaimer

ORBIFLY MET'MAP TEAM :

Programming & Development : Alexandra Zaïnal
Concept & Development : Baudouin d'Aumeries
Co-Development & Prog : Marc-Olivier Méhu
Technical & hardware support : Manuel Goepfert

Contact : metmap@orbifly.com




SOURCES & CREDITS :

   NOAA